Time;durP1;ratioP1;P1;durP2;ratioP2;P2;SDS_P1;SDS_P2;PMS_P1;PMS_P2;Temp;Humidity;BMP_temperature;BMP_pressure;BME280_temperature;BME280_humidity;BME280_pressure;Samples;Min_cycle;Max_cycle;Signal;HPM_P1;HPM_P2
2022/08/11 08:18:35;;;;;;;3.95;3.55;;;;;;;;;;1751435;79;21467;-72
2022/08/11 08:21:10;;;;;;;4.95;3.60;;;;;;;;;;1754003;81;20895;-72
2022/08/11 08:23:34;;;;;;;5.28;3.80;;;;;;;;;;1732742;81;21118;-73
2022/08/11 08:28:53;;;;;;;5.22;3.37;;;;;;;;;;1780084;80;20840;-73
2022/08/11 08:31:20;;;;;;;4.33;3.77;;;;;;;;;;1797295;79;21437;-73
2022/08/11 08:33:46;;;;;;;6.87;3.20;;;;;;;;;;1815878;79;20983;-69
2022/08/11 08:36:19;;;;;;;4.47;4.08;;;;;;;;;;1812548;77;21287;-73
2022/08/11 08:38:50;;;;;;;7.42;3.77;;;;;;;;;;1813397;78;20936;-74
2022/08/11 08:41:22;;;;;;;4.87;4.15;;;;;;;;;;1789743;79;20899;-73
2022/08/11 08:43:51;;;;;;;4.35;3.95;;;;;;;;;;1813755;79;21552;-75
2022/08/11 08:46:20;;;;;;;4.15;3.75;;;;;;;;;;1811883;79;20946;-72
2022/08/11 08:48:47;;;;;;;7.85;4.40;;;;;;;;;;1806305;79;21518;-72
2022/08/11 08:54:02;;;;;;;7.67;4.72;;;;;;;;;;1801501;79;20876;-71
2022/08/11 08:56:29;;;;;;;6.55;4.70;;;;;;;;;;1806960;79;20929;-70
2022/08/11 08:58:57;;;;;;;6.37;4.07;;;;;;;;;;1812909;78;20881;-71
2022/08/11 09:01:24;;;;;;;5.78;4.47;;;;;;;;;;1799371;79;27123;-74
2022/08/11 09:03:50;;;;;;;7.92;5.28;;;;;;;;;;1805857;78;21072;-73
2022/08/11 09:06:17;;;;;;;6.22;5.25;;;;;;;;;;1794398;79;20972;-73
2022/08/11 09:08:44;;;;;;;5.97;5.40;;;;;;;;;;1812070;79;20979;-71
2022/08/11 09:13:55;;;;;;;8.55;5.40;;;;;;;;;;1770802;79;21073;-72
2022/08/11 09:16:22;;;;;;;6.78;5.55;;;;;;;;;;1793962;80;20865;-72
2022/08/11 09:18:48;;;;;;;7.03;5.47;;;;;;;;;;1794799;80;20999;-73
2022/08/11 09:21:15;;;;;;;7.65;5.62;;;;;;;;;;1763367;79;20992;-73
2022/08/11 09:29:11;;;;;;;6.20;5.53;;;;;;;;;;1803798;79;21476;-71
2022/08/11 09:31:38;;;;;;;6.25;4.80;;;;;;;;;;1811154;79;20841;-70
2022/08/11 09:34:04;;;;;;;6.53;5.15;;;;;;;;;;1800015;78;21465;-71
2022/08/11 09:42:02;;;;;;;7.03;6.33;;;;;;;;;;1794625;80;21355;-74
2022/08/11 09:44:49;;;;;;;8.73;7.03;;;;;;;;;;1794885;79;20973;-74
2022/08/11 09:47:24;;;;;;;6.97;6.30;;;;;;;;;;1809411;79;20910;-74
2022/08/11 09:49:53;;;;;;;6.20;5.53;;;;;;;;;;1803507;77;20820;-70
2022/08/11 09:52:20;;;;;;;7.45;6.30;;;;;;;;;;1809192;78;21126;-74
2022/08/11 09:54:47;;;;;;;6.42;5.70;;;;;;;;;;1806023;79;20922;-74
2022/08/11 10:00:01;;;;;;;6.42;5.83;;;;;;;;;;1793643;79;20867;-73
2022/08/11 10:02:29;;;;;;;6.45;5.83;;;;;;;;;;1800277;79;20890;-72
2022/08/11 10:07:49;;;;;;;6.78;6.17;;;;;;;;;;1797653;79;21060;-72
2022/08/11 10:10:12;;;;;;;8.55;7.75;;;;;;;;;;1811787;78;20905;-71
2022/08/11 10:12:41;;;;;;;14.20;12.80;;;;;;;;;;1798385;78;20898;-72
2022/08/11 10:20:42;;;;;;;24.35;18.70;;;;;;;;;;1809909;79;21028;-71
2022/08/11 10:28:39;;;;;;;13.15;10.72;;;;;;;;;;1797594;78;20858;-72
2022/08/11 10:33:59;;;;;;;8.85;7.47;;;;;;;;;;1805965;79;20831;-73
2022/08/11 10:36:41;;;;;;;8.75;7.33;;;;;;;;;;1808148;79;20906;-73
2022/08/11 10:39:04;;;;;;;8.30;7.25;;;;;;;;;;1794776;79;26477;-74
2022/08/11 10:44:15;;;;;;;8.85;7.78;;;;;;;;;;1808043;79;21253;-74
2022/08/11 10:49:27;;;;;;;8.85;7.75;;;;;;;;;;1806815;79;20957;-74
2022/08/11 11:00:14;;;;;;;7.92;7.12;;;;;;;;;;1797701;79;21027;-71
2022/08/11 11:02:44;;;;;;;11.05;7.58;;;;;;;;;;1794653;79;20908;-69
2022/08/11 11:05:26;;;;;;;10.65;8.28;;;;;;;;;;1797396;79;20872;-71
2022/08/11 11:07:59;;;;;;;16.23;9.15;;;;;;;;;;1799552;79;21339;-69
2022/08/11 11:10:25;;;;;;;20.30;9.08;;;;;;;;;;1807997;79;21089;-70
2022/08/11 11:18:37;;;;;;;;;;;;;;;;;;1806856;78;20901;-70
2022/08/11 11:21:06;;;;;;;10.10;8.75;;;;;;;;;;1805699;79;20094;-70
2022/08/11 11:23:51;;;;;;;9.55;8.55;;;;;;;;;;1804709;79;21789;-71
2022/08/11 11:26:55;;;;;;;9.03;8.23;;;;;;;;;;1803519;79;21079;-71
2022/08/11 11:29:30;;;;;;;9.33;8.40;;;;;;;;;;1806368;79;20899;-71
2022/08/11 11:32:31;;;;;;;10.10;7.92;;;;;;;;;;1794416;80;20916;-70
2022/08/11 11:35:29;;;;;;;9.03;8.13;;;;;;;;;;1795398;79;20868;-70
2022/08/11 11:37:56;;;;;;;12.80;7.80;;;;;;;;;;1811406;79;21127;-70
2022/08/11 11:40:23;;;;;;;8.50;7.58;;;;;;;;;;1797718;79;20825;-72
2022/08/11 11:42:53;;;;;;;8.30;7.33;;;;;;;;;;1764169;79;20866;-71
2022/08/11 11:45:21;;;;;;;6.40;5.90;;;;;;;;;;1787562;80;21643;-70
2022/08/11 11:47:52;;;;;;;7.83;6.22;;;;;;;;;;1803419;78;20965;-71
2022/08/11 11:50:25;;;;;;;7.20;6.53;;;;;;;;;;1812280;79;21248;-72
2022/08/11 11:52:52;;;;;;;7.87;6.83;;;;;;;;;;1809011;78;20859;-73
2022/08/11 11:55:20;;;;;;;8.20;7.10;;;;;;;;;;1787003;79;21456;-71
2022/08/11 12:03:16;;;;;;;9.33;7.22;;;;;;;;;;1795288;79;21209;-75
2022/08/11 12:05:43;;;;;;;10.10;8.00;;;;;;;;;;1811860;79;20879;-74
2022/08/11 12:08:17;;;;;;;8.90;6.67;;;;;;;;;;1806081;78;20874;-75
2022/08/11 12:10:46;;;;;;;7.40;6.60;;;;;;;;;;1795990;79;20961;-74
2022/08/11 12:16:02;;;;;;;7.72;6.03;;;;;;;;;;1798268;78;21184;-71
2022/08/11 12:18:31;;;;;;;9.00;6.08;;;;;;;;;;1800751;79;20954;-76
2022/08/11 12:20:59;;;;;;;6.72;6.05;;;;;;;;;;1805067;79;20942;-74
2022/08/11 12:28:59;;;;;;;;;;;;;;;;;;1796959;79;21955;-73
2022/08/11 12:31:29;;;;;;;7.30;6.22;;;;;;;;;;1810202;79;26500;-75
2022/08/11 12:34:05;;;;;;;8.30;5.95;;;;;;;;;;1796342;79;20976;-73
2022/08/11 12:36:34;;;;;;;6.45;5.85;;;;;;;;;;1804673;79;20914;-75
2022/08/11 12:39:00;;;;;;;6.78;6.17;;;;;;;;;;1809148;79;20835;-75
2022/08/11 12:46:58;;;;;;;11.83;8.95;;;;;;;;;;1802814;78;20996;-72
2022/08/11 12:52:11;;;;;;;6.75;6.10;;;;;;;;;;1807687;79;20834;-74
2022/08/11 12:54:44;;;;;;;7.85;6.50;;;;;;;;;;1787084;79;21099;-74
2022/08/11 13:05:33;;;;;;;;;;;;;;;;;;1802887;79;20904;-73
2022/08/11 13:08:00;;;;;;;6.92;6.33;;;;;;;;;;1802233;79;21224;-74
2022/08/11 13:13:11;;;;;;;6.45;5.83;;;;;;;;;;1794972;79;20900;-73
2022/08/11 13:15:37;;;;;;;10.25;5.80;;;;;;;;;;1738077;80;20928;-71
2022/08/11 13:18:07;;;;;;;8.30;7.03;;;;;;;;;;1778337;79;20959;-74
2022/08/11 13:20:34;;;;;;;9.75;7.55;;;;;;;;;;1797980;79;21234;-73
2022/08/11 13:23:00;;;;;;;7.85;7.10;;;;;;;;;;1796630;79;20955;-70
2022/08/11 13:25:30;;;;;;;8.10;6.80;;;;;;;;;;1792177;78;20909;-74
2022/08/11 13:27:58;;;;;;;8.90;6.87;;;;;;;;;;1796600;79;20960;-73
2022/08/11 13:33:10;;;;;;;9.75;7.67;;;;;;;;;;1792601;80;21083;-71
2022/08/11 13:35:36;;;;;;;9.45;7.58;;;;;;;;;;1802900;79;20869;-70
2022/08/11 13:38:03;;;;;;;12.03;9.45;;;;;;;;;;1803045;79;20884;-74
2022/08/11 13:40:31;;;;;;;14.63;9.50;;;;;;;;;;1797695;79;20837;-73
2022/08/11 13:43:02;;;;;;;7.75;6.92;;;;;;;;;;1805122;79;20965;-71
2022/08/11 13:45:25;;;;;;;;;;;;;;;;;;1804119;79;21135;-71
2022/08/11 13:47:54;;;;;;;7.83;6.17;;;;;;;;;;1803159;79;20094;-74
2022/08/11 13:50:20;;;;;;;8.18;6.10;;;;;;;;;;1806484;79;20890;-72
2022/08/11 13:52:47;;;;;;;8.23;6.28;;;;;;;;;;1812244;79;20894;-70
2022/08/11 13:55:20;;;;;;;7.95;5.70;;;;;;;;;;1812665;79;21020;-72
2022/08/11 13:57:43;;;;;;;9.45;6.37;;;;;;;;;;1800730;78;21370;-73
2022/08/11 14:00:12;;;;;;;7.35;6.45;;;;;;;;;;1795610;77;20834;-71
2022/08/11 14:02:41;;;;;;;8.78;6.78;;;;;;;;;;1809535;79;21551;-73
2022/08/11 14:05:14;;;;;;;12.95;6.67;;;;;;;;;;1796419;78;20906;-73
2022/08/11 14:07:49;;;;;;;9.30;7.12;;;;;;;;;;1798461;79;21424;-72
2022/08/11 14:10:20;;;;;;;10.72;8.15;;;;;;;;;;1792940;79;21120;-70
2022/08/11 14:15:37;;;;;;;11.70;9.23;;;;;;;;;;1814469;78;20964;-73
2022/08/11 14:18:10;;;;;;;10.13;8.83;;;;;;;;;;1754871;80;20961;-74
2022/08/11 14:23:26;;;;;;;;;;;;;;;;;;1798067;80;23132;-73
2022/08/11 14:28:38;;;;;;;16.82;11.18;;;;;;;;;;1804485;79;20090;-76
2022/08/11 14:31:05;;;;;;;14.73;11.00;;;;;;;;;;1797020;78;21484;-74
2022/08/11 14:33:32;;;;;;;17.80;12.00;;;;;;;;;;1792266;79;20919;-75
2022/08/11 14:35:59;;;;;;;16.02;11.18;;;;;;;;;;1796838;79;21103;-75
2022/08/11 14:38:25;;;;;;;19.10;11.55;;;;;;;;;;1795294;80;20887;-73
2022/08/11 14:49:06;;;;;;;14.43;10.53;;;;;;;;;;1798804;79;21219;-76
2022/08/11 14:51:33;;;;;;;15.53;11.30;;;;;;;;;;1794948;79;21434;-72
2022/08/11 14:56:44;;;;;;;17.10;10.88;;;;;;;;;;1800374;79;20998;-77
2022/08/11 14:59:11;;;;;;;18.20;11.00;;;;;;;;;;1812152;79;20893;-74
2022/08/11 15:04:23;;;;;;;14.87;11.30;;;;;;;;;;1793484;79;20856;-73
2022/08/11 15:06:50;;;;;;;26.97;12.73;;;;;;;;;;1796059;79;20904;-74
2022/08/11 15:09:18;;;;;;;17.07;13.28;;;;;;;;;;1800277;79;20948;-73
2022/08/11 15:17:07;;;;;;;14.65;11.97;;;;;;;;;;1779609;79;20881;-73
2022/08/11 15:19:33;;;;;;;15.55;12.30;;;;;;;;;;1797409;79;20904;-73
2022/08/11 15:24:45;;;;;;;19.98;12.70;;;;;;;;;;1798553;78;20999;-74
2022/08/11 15:38:19;;;;;;;14.25;12.70;;;;;;;;;;1792385;79;20960;-74
2022/08/11 15:46:45;;;;;;;14.55;11.25;;;;;;;;;;1793405;79;20835;-73
2022/08/11 15:49:13;;;;;;;21.95;11.90;;;;;;;;;;1804400;79;21007;-73
2022/08/11 15:51:45;;;;;;;18.85;12.28;;;;;;;;;;1799267;79;20905;-75
2022/08/11 15:54:17;;;;;;;15.45;11.45;;;;;;;;;;1801594;79;21127;-75
2022/08/11 15:56:45;;;;;;;16.20;12.07;;;;;;;;;;1795548;80;21415;-73
2022/08/11 16:04:45;;;;;;;14.33;10.98;;;;;;;;;;1800162;78;20886;-75
2022/08/11 16:07:16;;;;;;;12.73;11.10;;;;;;;;;;1801623;79;21181;-74
2022/08/11 16:09:55;;;;;;;18.27;12.43;;;;;;;;;;1795373;79;20910;-76
2022/08/11 16:12:27;;;;;;;17.75;12.63;;;;;;;;;;1795027;78;20854;-75
2022/08/11 16:17:43;;;;;;;18.80;12.28;;;;;;;;;;1664985;85;20896;-75
2022/08/11 16:20:11;;;;;;;13.93;11.22;;;;;;;;;;1659383;85;21229;-74
2022/08/11 16:22:40;;;;;;;;;;;;;;;;;;1670959;85;20951;-74
2022/08/11 16:25:10;;;;;;;13.50;12.15;;;;;;;;;;1639334;85;20557;-74
2022/08/11 16:27:41;;;;;;;14.35;10.72;;;;;;;;;;1679332;85;21006;-74
2022/08/11 16:30:09;;;;;;;16.62;10.68;;;;;;;;;;1664080;85;21045;-74
2022/08/11 16:32:38;;;;;;;14.15;11.18;;;;;;;;;;1659591;85;21140;-75
2022/08/11 16:40:37;;;;;;;13.20;10.65;;;;;;;;;;1677680;84;21546;-74
2022/08/11 16:48:36;;;;;;;11.20;10.10;;;;;;;;;;1700877;83;20892;-75
2022/08/11 16:51:06;;;;;;;12.50;10.00;;;;;;;;;;1711674;79;21071;-74
2022/08/11 16:53:33;;;;;;;13.08;10.30;;;;;;;;;;1768849;79;20881;-74
2022/08/11 16:56:01;;;;;;;15.50;11.90;;;;;;;;;;1802937;78;20903;-75
2022/08/11 17:01:16;;;;;;;13.50;11.22;;;;;;;;;;1805708;79;21402;-74
2022/08/11 17:14:56;;;;;;;12.15;10.85;;;;;;;;;;1803383;78;21396;-75
2022/08/11 17:17:26;;;;;;;16.60;11.50;;;;;;;;;;1795965;79;21417;-75
2022/08/11 17:19:55;;;;;;;13.05;10.38;;;;;;;;;;1812433;79;20981;-74
2022/08/11 17:25:07;;;;;;;14.78;10.00;;;;;;;;;;1811277;79;21233;-75
2022/08/11 17:27:34;;;;;;;16.23;11.38;;;;;;;;;;1812236;79;21404;-74
2022/08/11 17:30:03;;;;;;;15.63;10.18;;;;;;;;;;1809059;79;20916;-73
2022/08/11 17:35:32;;;;;;;12.05;10.03;;;;;;;;;;1805127;79;20967;-73
2022/08/11 17:38:15;;;;;;;11.63;10.48;;;;;;;;;;1805862;79;21702;-74
2022/08/11 17:49:06;;;;;;;12.00;9.98;;;;;;;;;;1797958;79;21393;-76
2022/08/11 17:59:55;;;;;;;11.10;9.93;;;;;;;;;;1807101;79;20918;-76
2022/08/11 18:05:12;;;;;;;10.82;8.75;;;;;;;;;;1802699;79;21122;-74
